Pagrindinis puslapis
METAR-TAF:

METAR-TAF

Oro uostai :

Upsala, Švedija

platuma: 59-53N, ilguma: 017-36E, Aukštis: 21 m

Dabartinis oras

Ataskaita buvo paskelbta 1 valandą ir 20 minutes, ne 12:50 UTC
Vėjas 4 kt iš Šiaurės/Šiaurės Rytų, svyruoja nuo Šiaurės/Šiaurės Vakarų ir Rytų/Šiaurės Rytų
Temperatūra 25°C
Drėgmė 39%
Slėgis 1025 hPa
Matomumas 10 km arba daugiau
nėra debesų žemiau 1500 m ir nėra kamuolinių lietaus debesų

METAR: ESCM 011250Z 02004KT 340V060 CAVOK 25/10 Q1025

Laikas: 16:10 (14:10 UTC)

Prognozė

Ataskaita buvo paskelbta 5 valandos ir 50 minutes, ne 08:20 UTC
Prognozė galioja nuo 01 metu 09 UTC su 01 metu 14 UTC
Vėjas 6 kt iš Šiaurės
Matomumas 10 km arba daugiau
nėra debesų žemiau 1500 m ir nėra kamuolinių lietaus debesų

TAF: ESCM 010820Z 0109/0114 01006KT CAVOK RMK MIL

Orai ataskaitas ir orų prognozės (METAR, TAF).

turimą stotys yra geltonos ir raudonos taškus žemėlapyje.

Perkelti pele per norėdami pamatyti stoties vardą.

Tada spustelėkite, norėdami matyti oro stebėjimo ir prognozės.

Norėdami pakeisti žemėlapį: spustelėkite ant žalios mygtukų su juodo kryžiaus žemyn,; žalią mygtuką su brūkšneliu, jei norite nutolinti; arba žalių rodyklių gretimoms žemėlapius.


METAR-TAF: